Etusivu
METAR-TAF:

METAR-TAF

Lentoasemat :

Sýroksen lentoasema

Sýros, Kreikka

Leveyspiiri: 37-25-16N, Pituuspiiri: 024-56-54E, korkeus merenpinnasta: 73 m

Tämänhetkinen sää

Tämä raportti tehtiin 59 minuuttia sitten, kello 16.50 UTC
Tuuli 14 kn pohjoisen/luoteesta
Lämpötila 21°C
Kosteus 64%
Ilmanpaine 1011 hPa
Näkyvyys 10 km tai enemmän
Hajanaisia pilviä 1500 ft:n korkeudessa

METAR: LGSO 261650Z 34014KT 9999 SCT015 21/14 Q1011

Aika: 20:49 (17:49 UTC)


TAF: puuttuu

Säähavainnot ja -ennusteet yli 4000 lentoasemalta (METAR- ja TAF-raportit).

Käytössä olevat sääasemat on merkitty karttaan keltaisilla ja punaisilla pisteillä.

Aseta hiiri pisteen päälle nähdäksesi sääaseman nimen.

Klikkaa sitten nähdäksesi säähavainnot ja -ennusteet.

Kartan vaihtaminen: klikkaa mustalla rastilla varustettuja vihreitä pisteitä, niin voit zoomata sisään; viivalla varustettua vihreää pistettä, niin voit zoomata ulos tai vihreitä nuolia, niin pääset viereisille kartoille.


METAR-TAF: